KNFL/NFL METAR and TAF weather

Enter ICAO airport designator
Station Type Date Time Source
KNFL METAR 2019/12/06 02:05 UTC NOAA

KNFL 060205Z VRB05KT 1/2SM FG VV003 02/02 A3018 RMK AO2 T00170017


Station Type Date Time Source
KNFL Decoded METAR 2019/12/06 02:05 UTC NOAA

FALLON NAVAL AIR STATION, NV, United States (KNFL) 39-26N 118-41W 1199M
Dec 05, 2019 - 09:05 PM EST / 2019.12.06 0205 UTC
Wind: Variable at 6 MPH (5 KT):0
Visibility: 1/2 mile(s):0
Sky conditions: obscured
Weather: fog
Temperature: 35.1 F (1.7 C)
Dew Point: 35.1 F (1.7 C)
Relative Humidity: 100%
Pressure (altimeter): 30.18 in. Hg (1022 hPa)
ob: KNFL 060205Z VRB05KT 1/2SM FG VV003 02/02 A3018 RMK AO2 T00170017
cycle: 2

Station Type Date Time Source
KNFL TAF 2019/12/05 23:09 UTC NOAA

TAF TAF KNFL 0523/0623 VRB06KT 8000 BR BKN005 OVC010 620109 621005 QNH3011INS
TEMPO 0600/0604 1600 BR OVC005
FM060800 VRB06KT 4800 BR BKN005 OVC010 600000 QNH3013INS
TEMPO 0608/0614 0800 FG VV002 TM02/0613Z T07/0623Z FS30123

Example: see airport list